Time;durP1;ratioP1;P1;durP2;ratioP2;P2;SDS_P1;SDS_P2;PMS_P1;PMS_P2;Temp;Humidity;BMP_temperature;BMP_pressure;BME280_temperature;BME280_humidity;BME280_pressure;Samples;Min_cycle;Max_cycle;Signal;HPM_P1;HPM_P2
2021/09/18 00:02:16;;;;;;;11.52;7.78;;;13.10;99.90;;;;;;5052082;28;20036;-86
2021/09/18 00:04:42;;;;;;;9.35;6.30;;;13.00;99.90;;;;;;5052092;28;20090;-86
2021/09/18 00:07:08;;;;;;;10.20;6.47;;;13.00;99.90;;;;;;5051034;28;20102;-86
2021/09/18 00:09:33;;;;;;;9.57;6.47;;;13.10;99.90;;;;;;5051378;28;20063;-86
2021/09/18 00:11:59;;;;;;;10.88;7.45;;;13.00;99.90;;;;;;5055336;28;20124;-86
2021/09/18 00:14:25;;;;;;;10.25;6.68;;;12.90;99.90;;;;;;5057650;28;20021;-86
2021/09/18 00:16:51;;;;;;;11.90;7.70;;;12.90;99.90;;;;;;5039740;28;20028;-86
2021/09/18 00:19:17;;;;;;;11.00;7.47;;;12.90;99.90;;;;;;5051360;28;20462;-86
2021/09/18 00:21:42;;;;;;;11.20;6.95;;;12.90;99.90;;;;;;5051720;28;20097;-86
2021/09/18 00:24:08;;;;;;;12.52;7.40;;;13.00;99.90;;;;;;5040934;28;20033;-86
2021/09/18 00:26:34;;;;;;;10.68;7.70;;;12.90;99.90;;;;;;5047309;28;20031;-86
2021/09/18 00:29:00;;;;;;;13.05;8.48;;;12.80;99.90;;;;;;5050988;28;20392;-86
2021/09/18 00:31:27;;;;;;;11.00;7.88;;;12.80;99.90;;;;;;5050380;28;20021;-86
2021/09/18 00:33:53;;;;;;;10.25;7.75;;;12.90;99.90;;;;;;5040430;28;20053;-86
2021/09/18 00:36:19;;;;;;;12.63;7.50;;;12.80;99.90;;;;;;5032663;28;20044;-86
2021/09/18 00:38:44;;;;;;;10.82;7.43;;;12.80;99.90;;;;;;5033885;28;20434;-86
2021/09/18 00:41:10;;;;;;;11.43;7.30;;;12.70;99.90;;;;;;5032201;28;20393;-86
2021/09/18 00:43:36;;;;;;;12.15;8.10;;;12.70;99.90;;;;;;5051644;28;20032;-85
2021/09/18 00:46:03;;;;;;;9.88;7.25;;;12.80;99.90;;;;;;5051872;28;20033;-85
2021/09/18 00:48:28;;;;;;;9.98;7.13;;;12.70;99.90;;;;;;5052074;28;20087;-86
2021/09/18 00:50:55;;;;;;;11.93;7.90;;;12.70;99.90;;;;;;5048249;28;20037;-85
2021/09/18 00:53:22;;;;;;;12.77;7.95;;;12.70;99.90;;;;;;5048938;28;20021;-86
2021/09/18 00:55:49;;;;;;;15.15;7.35;;;12.60;99.90;;;;;;5051508;28;20101;-86
2021/09/18 00:58:15;;;;;;;9.40;7.20;;;12.70;99.90;;;;;;5052302;28;20025;-86
2021/09/18 01:00:40;;;;;;;15.63;8.43;;;12.60;99.90;;;;;;5044973;28;20040;-86
2021/09/18 01:03:06;;;;;;;12.63;7.50;;;12.60;99.90;;;;;;5052522;28;20029;-86
2021/09/18 01:05:32;;;;;;;11.57;8.25;;;12.50;99.90;;;;;;5053442;28;20116;-86
2021/09/18 01:07:59;;;;;;;13.25;9.10;;;12.50;99.90;;;;;;5055824;28;20034;-86
2021/09/18 01:10:25;;;;;;;10.48;8.40;;;12.50;99.90;;;;;;5056240;28;20037;-86
2021/09/18 01:13:20;;;;;;;14.52;9.00;;;12.50;99.90;;;;;;5071102;28;20044;-85
2021/09/18 01:15:48;;;;;;;15.60;8.73;;;12.40;99.90;;;;;;5037574;28;20033;-86
2021/09/18 01:18:15;;;;;;;12.30;8.02;;;12.40;99.90;;;;;;5057324;28;20075;-86
2021/09/18 01:20:43;;;;;;;12.50;7.68;;;12.40;99.90;;;;;;5057819;28;20048;-86
2021/09/18 01:23:10;;;;;;;9.05;6.88;;;12.30;99.90;;;;;;5066220;28;20020;-86
2021/09/18 01:25:38;;;;;;;14.27;8.25;;;12.50;99.90;;;;;;5054432;28;20032;-86
2021/09/18 01:28:05;;;;;;;13.02;7.88;;;12.50;99.90;;;;;;5051345;28;20036;-86
2021/09/18 01:30:32;;;;;;;13.57;8.15;;;12.50;99.90;;;;;;5051746;28;20033;-86
2021/09/18 01:33:00;;;;;;;10.77;7.43;;;12.50;99.90;;;;;;5051353;28;20028;-86
2021/09/18 01:35:26;;;;;;;15.30;8.20;;;12.50;99.90;;;;;;5052036;28;20052;-86
2021/09/18 01:37:51;;;;;;;10.88;7.25;;;12.50;99.90;;;;;;5051233;28;20059;-85
2021/09/18 01:40:29;;;;;;;10.30;7.05;;;12.50;99.90;;;;;;5041310;28;20029;-86
2021/09/18 01:42:56;;;;;;;12.60;7.07;;;12.50;99.90;;;;;;5049286;28;20458;-86
2021/09/18 01:45:22;;;;;;;11.38;7.38;;;12.40;99.90;;;;;;5037859;28;20076;-86
2021/09/18 01:47:56;;;;;;;11.35;8.07;;;12.40;99.90;;;;;;5051333;28;20025;-85
2021/09/18 01:50:36;;;;;;;10.25;7.32;;;12.40;99.90;;;;;;5051266;28;20083;-86
2021/09/18 01:53:05;;;;;;;13.00;7.80;;;12.30;99.90;;;;;;5050885;28;20044;-86
2021/09/18 01:55:31;;;;;;;13.13;7.55;;;12.10;99.90;;;;;;5051217;28;20059;-86
2021/09/18 01:57:59;;;;;;;10.13;7.70;;;12.30;99.90;;;;;;5045093;28;20032;-86
2021/09/18 02:00:25;;;;;;;10.40;6.72;;;12.30;99.90;;;;;;5050461;28;20107;-86
2021/09/18 02:02:51;;;;;;;13.35;7.85;;;12.40;99.90;;;;;;5059123;28;20032;-86
2021/09/18 02:05:21;;;;;;;12.30;8.07;;;12.30;99.90;;;;;;5081126;22;20046;-82
2021/09/18 02:07:47;;;;;;;12.40;8.20;;;12.40;99.90;;;;;;5027764;28;20064;-82
2021/09/18 02:10:16;;;;;;;12.13;7.95;;;12.20;99.90;;;;;;5032122;28;20022;-82
2021/09/18 02:12:42;;;;;;;12.18;8.70;;;12.30;99.90;;;;;;5045224;28;20025;-81
2021/09/18 02:15:08;;;;;;;12.02;7.85;;;12.30;99.90;;;;;;5037108;28;20049;-83
2021/09/18 02:17:34;;;;;;;13.30;8.70;;;12.30;99.90;;;;;;5037369;28;20034;-81
2021/09/18 02:20:00;;;;;;;11.90;8.52;;;12.20;99.90;;;;;;5019270;28;20030;-82
2021/09/18 02:22:26;;;;;;;10.45;7.38;;;12.20;99.90;;;;;;5027564;28;20098;-81
2021/09/18 02:24:51;;;;;;;12.50;8.23;;;12.20;99.90;;;;;;5026071;28;20038;-81
2021/09/18 02:27:17;;;;;;;12.82;8.13;;;12.10;99.90;;;;;;5008333;28;20037;-81
2021/09/18 02:29:43;;;;;;;11.90;8.25;;;12.10;99.90;;;;;;5005127;28;20446;-82
2021/09/18 02:32:09;;;;;;;10.73;7.80;;;12.10;99.90;;;;;;5016551;28;20030;-82
2021/09/18 02:34:34;;;;;;;12.75;7.70;;;12.10;99.90;;;;;;5003395;28;20030;-82
2021/09/18 02:37:00;;;;;;;12.05;7.93;;;12.10;99.90;;;;;;5012373;28;20029;-82
2021/09/18 02:39:26;;;;;;;13.77;7.70;;;12.10;99.90;;;;;;5020313;28;20085;-82
2021/09/18 02:41:52;;;;;;;11.20;7.88;;;12.10;99.90;;;;;;5009520;28;20041;-83
2021/09/18 02:44:17;;;;;;;9.63;6.75;;;12.10;99.90;;;;;;5007939;28;20034;-82
2021/09/18 02:46:44;;;;;;;12.20;7.50;;;12.10;99.90;;;;;;5029306;28;20030;-83
2021/09/18 02:49:10;;;;;;;15.55;9.05;;;12.10;99.90;;;;;;5037316;28;20409;-83
2021/09/18 02:51:35;;;;;;;13.02;7.80;;;12.00;99.90;;;;;;5027108;28;20034;-83
2021/09/18 02:54:02;;;;;;;10.68;7.07;;;12.00;99.90;;;;;;5023481;28;20053;-83
2021/09/18 02:56:29;;;;;;;10.10;7.30;;;12.00;99.90;;;;;;5023200;28;20026;-83
2021/09/18 02:58:55;;;;;;;10.35;7.53;;;11.90;99.90;;;;;;5022594;28;20525;-82
2021/09/18 03:01:21;;;;;;;11.32;7.63;;;11.90;99.90;;;;;;5020548;28;20072;-82
2021/09/18 03:03:47;;;;;;;13.43;8.10;;;12.00;99.90;;;;;;5004744;28;20057;-83
2021/09/18 03:06:13;;;;;;;12.57;7.78;;;11.80;99.90;;;;;;5023582;28;20037;-81
2021/09/18 03:08:38;;;;;;;11.60;7.50;;;11.80;99.90;;;;;;5022259;28;20049;-81
2021/09/18 03:11:05;;;;;;;11.80;7.30;;;11.80;99.90;;;;;;5025398;28;20525;-82
2021/09/18 03:13:31;;;;;;;11.43;7.80;;;11.70;99.90;;;;;;5025694;28;20018;-81
2021/09/18 03:15:57;;;;;;;11.98;8.07;;;11.70;99.90;;;;;;5031017;28;20031;-83
2021/09/18 03:18:22;;;;;;;11.15;7.60;;;11.70;99.90;;;;;;5029857;28;20037;-81
2021/09/18 03:20:48;;;;;;;12.63;7.75;;;11.70;99.90;;;;;;5018738;28;20031;-82
2021/09/18 03:23:13;;;;;;;12.40;7.50;;;11.70;99.90;;;;;;5023526;28;20108;-81
2021/09/18 03:25:42;;;;;;;11.32;7.57;;;11.70;99.90;;;;;;5022577;28;20034;-81
2021/09/18 03:28:08;;;;;;;10.50;6.93;;;11.70;99.90;;;;;;5000853;28;20105;-81
2021/09/18 03:30:34;;;;;;;11.13;7.40;;;11.80;99.90;;;;;;5009835;28;20116;-81
2021/09/18 03:33:00;;;;;;;11.77;7.53;;;11.70;99.90;;;;;;5021772;28;20545;-81
2021/09/18 03:35:25;;;;;;;11.95;6.53;;;11.80;99.90;;;;;;5010807;28;20045;-81
2021/09/18 03:37:51;;;;;;;13.50;7.35;;;11.70;99.90;;;;;;5003801;28;20030;-82
2021/09/18 03:40:17;;;;;;;12.40;6.93;;;11.70;99.90;;;;;;5005055;28;20041;-81
2021/09/18 03:42:43;;;;;;;11.77;7.15;;;11.70;99.90;;;;;;5003376;28;20025;-80
2021/09/18 03:45:09;;;;;;;11.60;7.47;;;11.70;99.90;;;;;;5001800;28;20077;-82
2021/09/18 03:47:35;;;;;;;10.50;6.93;;;11.70;99.90;;;;;;5008177;28;20222;-82
2021/09/18 03:50:01;;;;;;;13.57;6.93;;;11.70;99.90;;;;;;5024639;28;20022;-82
2021/09/18 03:52:26;;;;;;;11.15;7.22;;;11.60;99.90;;;;;;5025785;28;20113;-80
2021/09/18 03:54:53;;;;;;;14.13;7.38;;;11.70;99.90;;;;;;5023889;28;20068;-81
2021/09/18 03:57:19;;;;;;;11.75;7.38;;;11.50;99.90;;;;;;5007401;28;20030;-81
2021/09/18 03:59:45;;;;;;;11.75;7.13;;;11.50;99.90;;;;;;5021767;28;20076;-83
2021/09/18 04:02:10;;;;;;;11.30;7.10;;;11.50;99.90;;;;;;4988976;28;20513;-81
2021/09/18 04:04:36;;;;;;;15.05;7.10;;;11.50;99.90;;;;;;5004678;28;20040;-81
2021/09/18 04:07:02;;;;;;;13.23;7.38;;;11.50;99.90;;;;;;5005970;28;20042;-80
2021/09/18 04:09:28;;;;;;;15.95;7.50;;;11.40;99.90;;;;;;5010300;28;20034;-82
2021/09/18 04:11:54;;;;;;;11.68;7.25;;;11.50;99.90;;;;;;5003385;28;20502;-80
2021/09/18 04:14:19;;;;;;;11.85;7.50;;;11.50;99.90;;;;;;5002790;28;20030;-80
2021/09/18 04:16:45;;;;;;;12.25;6.78;;;11.40;99.90;;;;;;5001976;28;20133;-81
2021/09/18 04:19:11;;;;;;;11.35;7.63;;;11.50;99.90;;;;;;5001998;28;20026;-80
2021/09/18 04:21:36;;;;;;;11.50;7.43;;;11.50;99.90;;;;;;4986957;28;20037;-79
2021/09/18 04:24:04;;;;;;;10.40;6.72;;;11.50;99.90;;;;;;5035251;28;20167;-81
2021/09/18 04:26:30;;;;;;;9.95;6.78;;;11.50;99.90;;;;;;5021178;28;20029;-81
2021/09/18 04:28:57;;;;;;;11.38;7.03;;;11.50;99.90;;;;;;4997230;28;20026;-82
2021/09/18 04:31:22;;;;;;;11.73;6.80;;;11.40;99.90;;;;;;5014281;28;20038;-82
2021/09/18 04:33:48;;;;;;;11.35;7.30;;;11.40;99.90;;;;;;5000625;28;20561;-83
2021/09/18 04:36:14;;;;;;;11.80;7.10;;;11.40;99.90;;;;;;5001934;28;20407;-82
2021/09/18 04:38:39;;;;;;;11.77;6.75;;;11.60;99.90;;;;;;5007765;28;20030;-81
2021/09/18 04:41:05;;;;;;;9.07;6.45;;;11.30;99.90;;;;;;5008477;28;20030;-81
2021/09/18 04:43:31;;;;;;;10.38;6.43;;;11.30;99.90;;;;;;5004864;28;20041;-82
2021/09/18 04:45:57;;;;;;;9.75;6.38;;;11.30;99.90;;;;;;5005891;28;20037;-81
2021/09/18 04:48:22;;;;;;;12.85;7.10;;;11.30;99.90;;;;;;5002385;28;20022;-82
2021/09/18 04:50:48;;;;;;;9.52;6.70;;;11.30;99.90;;;;;;5005085;28;20034;-81
2021/09/18 04:53:15;;;;;;;12.32;7.22;;;11.30;99.90;;;;;;5003924;28;20033;-80
2021/09/18 04:55:41;;;;;;;12.88;7.00;;;11.20;99.90;;;;;;5003749;28;20056;-82
2021/09/18 04:58:07;;;;;;;14.73;7.25;;;11.30;99.90;;;;;;5004268;28;20097;-82
2021/09/18 05:00:34;;;;;;;12.18;7.13;;;11.20;99.90;;;;;;5005748;28;20477;-82
2021/09/18 05:03:00;;;;;;;10.80;6.82;;;11.30;99.90;;;;;;5039177;28;20163;-82
2021/09/18 05:05:25;;;;;;;10.77;6.10;;;11.30;99.90;;;;;;5039066;28;20845;-80
2021/09/18 05:07:51;;;;;;;12.38;6.07;;;11.30;99.90;;;;;;5006104;28;20038;-83
2021/09/18 05:10:16;;;;;;;13.57;6.50;;;11.20;99.90;;;;;;5014484;28;20059;-82
2021/09/18 05:12:42;;;;;;;12.82;6.88;;;11.20;99.90;;;;;;5020364;28;20129;-83
2021/09/18 05:15:08;;;;;;;10.48;6.63;;;11.20;99.90;;;;;;5021304;28;20026;-81
2021/09/18 05:17:34;;;;;;;11.35;7.38;;;11.20;99.90;;;;;;4987328;28;20033;-81
2021/09/18 05:19:59;;;;;;;12.32;7.18;;;11.10;99.90;;;;;;5005933;28;20091;-81
2021/09/18 05:22:25;;;;;;;11.90;7.03;;;11.20;99.90;;;;;;5006316;28;20031;-83
2021/09/18 05:24:51;;;;;;;10.73;7.30;;;11.10;99.90;;;;;;5006279;28;20038;-81
2021/09/18 05:27:18;;;;;;;10.55;7.07;;;11.10;99.90;;;;;;5026282;28;20581;-81
2021/09/18 05:29:44;;;;;;;10.57;6.78;;;11.10;99.90;;;;;;5028007;28;20060;-83
2021/09/18 05:32:10;;;;;;;10.55;6.95;;;11.20;99.90;;;;;;5024845;28;20057;-82
2021/09/18 05:34:36;;;;;;;10.93;6.55;;;11.20;99.90;;;;;;5010515;28;20026;-84
2021/09/18 05:37:02;;;;;;;14.48;6.97;;;11.20;99.90;;;;;;4999790;28;20406;-83
2021/09/18 05:39:27;;;;;;;10.35;6.82;;;11.20;99.90;;;;;;5016415;28;20099;-83
2021/09/18 05:41:53;;;;;;;10.27;6.90;;;11.20;99.90;;;;;;4981749;28;20026;-81
2021/09/18 05:44:18;;;;;;;8.90;6.55;;;11.30;99.90;;;;;;5011708;28;20033;-81
2021/09/18 05:46:44;;;;;;;12.23;6.95;;;11.30;99.90;;;;;;4999040;28;20073;-84
2021/09/18 05:49:10;;;;;;;11.55;6.22;;;11.30;99.90;;;;;;4999342;28;20027;-84
2021/09/18 05:51:35;;;;;;;13.02;6.80;;;11.30;99.90;;;;;;5013108;28;20026;-83
2021/09/18 05:54:01;;;;;;;11.23;7.25;;;11.40;99.90;;;;;;4999012;28;20018;-83
2021/09/18 05:56:26;;;;;;;13.90;8.20;;;11.30;99.90;;;;;;4999180;28;20014;-83
2021/09/18 05:58:52;;;;;;;11.82;7.03;;;11.30;99.90;;;;;;4999369;28;20022;-83
2021/09/18 06:01:18;;;;;;;13.10;7.57;;;11.20;99.90;;;;;;5002900;28;20030;-80
2021/09/18 06:03:43;;;;;;;13.15;7.38;;;11.20;99.90;;;;;;4990759;28;20050;-80
2021/09/18 06:06:09;;;;;;;12.98;7.65;;;11.20;99.90;;;;;;4999275;28;20045;-80
2021/09/18 06:08:35;;;;;;;11.15;7.60;;;11.20;99.90;;;;;;5027436;28;20030;-83
2021/09/18 06:11:00;;;;;;;11.52;7.13;;;11.10;99.90;;;;;;5006522;28;20030;-81
2021/09/18 06:13:26;;;;;;;13.75;7.47;;;11.20;99.90;;;;;;5023375;28;20037;-81
2021/09/18 06:15:51;;;;;;;10.60;7.50;;;11.30;99.90;;;;;;5022929;28;20025;-82
2021/09/18 06:18:17;;;;;;;11.15;6.93;;;11.40;99.90;;;;;;5024110;28;20092;-82
2021/09/18 06:20:43;;;;;;;11.25;7.80;;;11.50;99.90;;;;;;5005789;28;20022;-81
2021/09/18 06:23:08;;;;;;;11.98;6.68;;;11.50;99.90;;;;;;5025569;28;20034;-83
2021/09/18 06:25:34;;;;;;;11.50;7.95;;;11.60;99.90;;;;;;5025476;28;20030;-81
2021/09/18 06:28:00;;;;;;;10.82;7.55;;;11.50;99.90;;;;;;5006599;28;20018;-81
2021/09/18 06:30:26;;;;;;;16.35;7.35;;;11.40;99.90;;;;;;5021088;28;20049;-82
2021/09/18 06:32:51;;;;;;;12.50;7.13;;;11.40;99.90;;;;;;5021162;28;20023;-82
2021/09/18 06:35:17;;;;;;;10.55;6.95;;;11.60;99.90;;;;;;5018865;28;20770;-83
2021/09/18 06:37:44;;;;;;;13.52;7.68;;;11.70;99.90;;;;;;5023535;28;20026;-84
2021/09/18 06:40:12;;;;;;;11.82;7.78;;;11.80;99.90;;;;;;5007545;28;20093;-84
2021/09/18 06:42:38;;;;;;;12.13;7.82;;;11.90;99.90;;;;;;5023253;28;20022;-84
2021/09/18 06:45:05;;;;;;;11.32;7.75;;;11.90;99.90;;;;;;5021151;28;20018;-84
2021/09/18 06:47:32;;;;;;;12.55;8.35;;;12.00;99.90;;;;;;5002854;28;20022;-81
2021/09/18 06:49:58;;;;;;;11.88;7.72;;;12.10;99.90;;;;;;5005127;28;20034;-81
2021/09/18 06:52:24;;;;;;;11.93;8.55;;;12.20;99.90;;;;;;5022103;28;20053;-82
2021/09/18 06:54:49;;;;;;;12.40;8.85;;;12.30;99.90;;;;;;5007187;28;20026;-82
2021/09/18 06:57:15;;;;;;;16.15;8.82;;;12.50;99.90;;;;;;5018866;28;20025;-82
2021/09/18 06:59:41;;;;;;;14.57;9.27;;;12.50;99.90;;;;;;5016959;28;20029;-83
2021/09/18 07:02:08;;;;;;;13.63;9.82;;;12.60;99.90;;;;;;5023665;28;20041;-82
2021/09/18 07:04:35;;;;;;;12.20;8.70;;;12.50;99.90;;;;;;5023651;28;20140;-82
2021/09/18 07:07:02;;;;;;;14.93;9.18;;;12.40;99.90;;;;;;5006223;28;20064;-81
2021/09/18 07:09:28;;;;;;;17.02;9.88;;;12.40;99.90;;;;;;5021682;28;20026;-83
2021/09/18 07:11:54;;;;;;;13.63;9.32;;;12.30;99.90;;;;;;5015291;28;20034;-83
2021/09/18 07:14:19;;;;;;;11.88;8.52;;;12.10;99.90;;;;;;5019640;28;20033;-83
2021/09/18 07:16:45;;;;;;;14.40;9.05;;;12.20;99.90;;;;;;5019564;28;20505;-81
2021/09/18 07:19:10;;;;;;;12.00;8.25;;;12.40;99.90;;;;;;5019057;28;20026;-81
2021/09/18 07:21:37;;;;;;;13.63;8.95;;;12.60;99.90;;;;;;5019785;28;20041;-82
2021/09/18 07:24:04;;;;;;;15.13;9.63;;;12.60;99.90;;;;;;5002184;28;20025;-82
2021/09/18 07:26:29;;;;;;;15.18;8.90;;;12.70;99.90;;;;;;5015545;28;20025;-80
2021/09/18 07:28:55;;;;;;;11.60;8.38;;;12.70;99.90;;;;;;5000183;28;20034;-82
2021/09/18 07:31:21;;;;;;;13.35;8.32;;;12.70;99.90;;;;;;5016000;28;20053;-82
2021/09/18 07:33:46;;;;;;;13.30;9.00;;;12.70;99.90;;;;;;5020035;28;20026;-82
2021/09/18 07:36:12;;;;;;;12.80;8.50;;;12.90;99.90;;;;;;5001894;28;20399;-81
2021/09/18 07:38:38;;;;;;;13.57;9.18;;;13.00;99.90;;;;;;5009747;28;20025;-83
2021/09/18 07:41:04;;;;;;;14.48;8.82;;;13.20;99.90;;;;;;4995322;28;20108;-81
2021/09/18 07:43:29;;;;;;;13.23;8.55;;;13.30;99.90;;;;;;5016299;28;20584;-81
2021/09/18 07:45:57;;;;;;;19.55;8.90;;;13.20;99.90;;;;;;5009050;28;20031;-81
2021/09/18 07:48:22;;;;;;;12.07;8.63;;;13.30;99.90;;;;;;4991589;28;20072;-80
2021/09/18 07:50:48;;;;;;;14.27;9.18;;;13.30;99.90;;;;;;5016091;28;20481;-79
2021/09/18 07:53:14;;;;;;;16.23;9.10;;;13.30;99.90;;;;;;5020133;28;20021;-81
2021/09/18 07:55:40;;;;;;;13.35;8.88;;;13.30;99.90;;;;;;4984035;28;20057;-82
2021/09/18 07:58:06;;;;;;;13.82;8.50;;;13.50;99.90;;;;;;5015600;28;20105;-82
2021/09/18 08:00:32;;;;;;;14.98;9.02;;;13.70;99.90;;;;;;5017251;28;20510;-83
2021/09/18 08:02:59;;;;;;;13.43;8.95;;;14.00;99.90;;;;;;5018109;28;20082;-83
2021/09/18 08:05:24;;;;;;;11.90;8.15;;;14.20;99.90;;;;;;5020728;28;20379;-82
2021/09/18 08:07:50;;;;;;;13.50;8.75;;;14.40;99.90;;;;;;5018731;28;20034;-83
2021/09/18 08:10:17;;;;;;;14.35;8.00;;;14.60;99.90;;;;;;5021437;28;20029;-82
2021/09/18 08:12:49;;;;;;;14.13;7.90;;;14.70;99.90;;;;;;5020281;28;20053;-82
2021/09/18 08:15:17;;;;;;;12.32;7.88;;;14.90;99.90;;;;;;5007950;28;20437;-82
2021/09/18 08:17:47;;;;;;;13.02;8.27;;;15.20;99.90;;;;;;5014840;28;20244;-81
2021/09/18 08:20:14;;;;;;;11.27;7.53;;;15.30;99.90;;;;;;5017636;28;20049;-82
2021/09/18 08:22:40;;;;;;;12.02;7.78;;;15.40;99.90;;;;;;5022555;28;20464;-82
2021/09/18 08:25:08;;;;;;;12.68;7.40;;;15.50;99.90;;;;;;5002961;28;20017;-83
2021/09/18 08:27:34;;;;;;;11.30;7.65;;;15.50;99.90;;;;;;5016833;28;20030;-82
2021/09/18 08:30:00;;;;;;;12.15;7.93;;;15.40;99.90;;;;;;5017450;28;20822;-82
2021/09/18 08:32:25;;;;;;;11.25;7.25;;;15.50;99.90;;;;;;5004546;28;20022;-81
2021/09/18 08:34:51;;;;;;;12.85;7.15;;;15.60;99.90;;;;;;5005784;28;20053;-83
2021/09/18 08:37:17;;;;;;;10.70;7.25;;;15.30;99.90;;;;;;5004870;28;20104;-82
2021/09/18 08:39:42;;;;;;;10.18;7.20;;;15.50;99.90;;;;;;5005270;28;20014;-81
2021/09/18 08:42:17;;;;;;;9.57;6.68;;;15.70;99.90;;;;;;5020934;28;20026;-82
2021/09/18 08:44:43;;;;;;;11.52;6.97;;;15.60;99.90;;;;;;5017000;28;20026;-82
2021/09/18 08:47:13;;;;;;;8.65;6.35;;;15.80;99.90;;;;;;5007746;28;20120;-80
2021/09/18 08:49:40;;;;;;;9.98;6.75;;;15.90;99.90;;;;;;5005395;28;20658;-82
2021/09/18 08:52:06;;;;;;;9.10;6.22;;;16.10;99.90;;;;;;5017711;28;20104;-83
2021/09/18 08:54:39;;;;;;;11.82;6.63;;;16.20;99.90;;;;;;5003147;28;20070;-82
2021/09/18 08:57:11;;;;;;;13.13;7.28;;;16.50;99.90;;;;;;5005619;28;20028;-82
2021/09/18 08:59:37;;;;;;;10.13;6.10;;;16.50;99.90;;;;;;5020836;28;20081;-82
2021/09/18 09:02:18;;;;;;;8.13;5.40;;;16.70;99.90;;;;;;5025307;28;20030;-82
2021/09/18 09:04:45;;;;;;;9.43;5.53;;;16.90;99.90;;;;;;5009805;28;20026;-81
2021/09/18 09:07:14;;;;;;;7.90;5.22;;;16.90;99.90;;;;;;5012953;28;20018;-83
2021/09/18 09:09:53;;;;;;;7.95;5.45;;;17.20;99.90;;;;;;5013596;28;20092;-81
2021/09/18 09:12:27;;;;;;;8.90;5.65;;;17.30;99.90;;;;;;5019955;28;20033;-80
2021/09/18 09:14:53;;;;;;;8.98;5.80;;;17.40;99.90;;;;;;5010217;28;20022;-82
2021/09/18 09:17:30;;;;;;;8.43;5.45;;;17.60;99.90;;;;;;5010599;28;20025;-83
2021/09/18 09:19:56;;;;;;;7.95;5.03;;;17.80;99.90;;;;;;5009459;28;20133;-82
2021/09/18 09:22:41;;;;;;;7.30;4.82;;;17.80;99.90;;;;;;4992756;28;20029;-81
2021/09/18 09:25:23;;;;;;;8.40;5.10;;;17.90;99.90;;;;;;5011470;28;20022;-82
2021/09/18 09:27:48;;;;;;;8.73;4.43;;;18.10;99.90;;;;;;5016532;28;20033;-81
2021/09/18 09:30:28;;;;;;;7.72;5.15;;;18.30;99.90;;;;;;4998887;28;20268;-80
2021/09/18 09:32:54;;;;;;;7.88;5.35;;;18.40;99.90;;;;;;5017855;28;20105;-80
2021/09/18 09:35:20;;;;;;;8.15;4.93;;;18.40;99.90;;;;;;5016602;28;20061;-81
2021/09/18 09:37:57;;;;;;;7.72;4.88;;;18.40;99.90;;;;;;5013507;28;20072;-79
2021/09/18 09:40:41;;;;;;;5.55;3.72;;;18.40;99.90;;;;;;5013652;28;20482;-82
2021/09/18 09:43:10;;;;;;;5.60;3.30;;;18.70;99.90;;;;;;5008006;28;20030;-82
2021/09/18 09:45:37;;;;;;;5.20;3.20;;;18.90;99.90;;;;;;4996352;28;20037;-82
2021/09/18 09:48:15;;;;;;;8.35;3.53;;;19.00;99.90;;;;;;4999593;28;20050;-83
2021/09/18 09:50:44;;;;;;;10.43;6.22;;;19.20;99.90;;;;;;5014573;28;20344;-83
2021/09/18 09:53:30;;;;;;;8.60;5.18;;;19.10;99.90;;;;;;5015355;28;20081;-81
2021/09/18 09:55:57;;;;;;;6.00;3.40;;;19.20;99.90;;;;;;5018465;28;20018;-80
2021/09/18 09:58:23;;;;;;;4.70;2.97;;;19.20;99.90;;;;;;4998642;28;20021;-81
2021/09/18 10:00:51;;;;;;;7.93;3.40;;;19.30;99.90;;;;;;5003453;28;20025;-82
2021/09/18 10:03:22;;;;;;;5.70;3.03;;;19.40;99.90;;;;;;5017456;28;20038;-80
2021/09/18 10:05:48;;;;;;;3.67;2.08;;;19.60;99.90;;;;;;4995522;28;20034;-81
2021/09/18 10:08:18;;;;;;;6.35;2.80;;;19.50;99.90;;;;;;5016532;28;20026;-80
2021/09/18 10:10:45;;;;;;;3.83;2.33;;;19.60;99.90;;;;;;5018915;28;20057;-81
2021/09/18 10:13:11;;;;;;;3.58;1.95;;;19.80;99.90;;;;;;5015551;28;20892;-78
2021/09/18 10:15:37;;;;;;;2.40;0.68;;;19.90;99.90;;;;;;5017548;28;20053;-79
2021/09/18 10:18:03;;;;;;;2.10;0.90;;;20.00;99.90;;;;;;5006606;28;20387;-80
2021/09/18 10:23:17;;;;;;;2.55;1.17;;;20.30;99.90;;;;;;5019353;28;20080;-80
2021/09/18 10:25:47;;;;;;;3.17;1.35;;;20.30;99.90;;;;;;5018400;28;20086;-81
2021/09/18 10:28:42;;;;;;;2.88;1.00;;;20.00;99.90;;;;;;5014962;28;20074;-82
2021/09/18 10:31:17;;;;;;;2.47;1.20;;;20.30;99.90;;;;;;5016437;28;20030;-83
2021/09/18 10:33:46;;;;;;;2.65;1.40;;;20.20;99.90;;;;;;5005791;28;20081;-84
2021/09/18 10:36:29;;;;;;;3.17;1.80;;;20.30;99.90;;;;;;5004085;28;20089;-83
2021/09/18 10:39:19;;;;;;;3.33;1.88;;;20.50;99.90;;;;;;5017195;28;20030;-83
2021/09/18 10:41:50;;;;;;;4.47;2.00;;;20.60;99.90;;;;;;5006192;28;20656;-83
2021/09/18 10:44:17;;;;;;;;;;;20.60;99.90;;;;;;5003129;28;20022;-84
2021/09/18 10:47:03;;;;;;;5.50;1.25;;;20.50;99.90;;;;;;5019550;28;19916;-82
2021/09/18 10:49:32;;;;;;;2.10;1.10;;;20.40;99.30;;;;;;5006507;28;20047;-83
2021/09/18 10:52:16;;;;;;;2.55;1.23;;;20.60;98.20;;;;;;5017367;28;20092;-83
2021/09/18 10:55:01;;;;;;;2.55;1.17;;;20.70;98.20;;;;;;5020137;28;20086;-84
2021/09/18 10:57:37;;;;;;;2.72;1.33;;;20.90;97.70;;;;;;5020725;28;20022;-80
2021/09/18 11:00:14;;;;;;;2.28;1.38;;;20.90;98.30;;;;;;5019233;28;20069;-84
2021/09/18 11:02:42;;;;;;;2.67;1.40;;;21.10;98.00;;;;;;5004046;28;20120;-83
2021/09/18 11:05:10;;;;;;;3.42;1.10;;;21.00;97.20;;;;;;5019021;28;20018;-84
2021/09/18 11:07:48;;;;;;;2.30;0.80;;;21.10;96.40;;;;;;5018573;28;20030;-82
2021/09/18 11:10:36;;;;;;;2.83;0.80;;;21.30;95.80;;;;;;5016154;28;20088;-82
2021/09/18 11:13:08;;;;;;;1.13;0.70;;;21.30;95.00;;;;;;5024334;28;20026;-82
2021/09/18 11:15:50;;;;;;;2.17;0.90;;;21.30;95.00;;;;;;5019153;28;20036;-83
2021/09/18 11:18:37;;;;;;;3.33;1.10;;;21.50;94.50;;;;;;5025260;28;20114;-84
2021/09/18 11:21:30;;;;;;;3.22;1.40;;;21.50;94.80;;;;;;5021090;28;20022;-83
2021/09/18 11:23:58;;;;;;;3.08;1.25;;;21.50;95.10;;;;;;5020868;28;20030;-83
2021/09/18 11:26:52;;;;;;;4.32;1.23;;;21.30;95.50;;;;;;5021878;28;20029;-82
2021/09/18 11:29:24;;;;;;;2.22;1.30;;;21.40;96.10;;;;;;5016989;28;20205;-81
2021/09/18 11:32:12;;;;;;;3.05;1.40;;;21.60;95.60;;;;;;4997741;28;20024;-83
2021/09/18 11:34:53;;;;;;;2.88;1.45;;;21.70;96.30;;;;;;5018165;28;20018;-83
2021/09/18 11:37:26;;;;;;;3.47;1.92;;;21.80;95.90;;;;;;5014112;28;20018;-83
2021/09/18 11:40:04;;;;;;;4.70;2.25;;;22.00;96.10;;;;;;5023978;28;20041;-82
2021/09/18 11:42:37;;;;;;;5.35;2.50;;;22.10;96.20;;;;;;5016376;28;20038;-82
2021/09/18 11:45:08;;;;;;;4.10;2.20;;;22.10;96.10;;;;;;5011658;28;20037;-82
2021/09/18 11:47:43;;;;;;;4.70;2.30;;;22.20;95.90;;;;;;4998375;28;20050;-82
2021/09/18 11:50:30;;;;;;;3.97;2.30;;;22.10;96.80;;;;;;4999152;28;20054;-82
2021/09/18 11:53:03;;;;;;;3.40;2.35;;;22.20;97.00;;;;;;5006573;28;20106;-83
2021/09/18 11:55:31;;;;;;;6.30;2.60;;;22.40;96.90;;;;;;5008546;28;20026;-83
2021/09/18 11:58:04;;;;;;;3.95;2.65;;;22.30;96.00;;;;;;5010900;28;20026;-82
2021/09/18 12:00:30;;;;;;;4.90;2.60;;;22.50;96.00;;;;;;5016844;28;20026;-83
2021/09/18 12:02:59;;;;;;;4.65;2.45;;;22.40;96.10;;;;;;5006517;28;20037;-83
2021/09/18 12:05:25;;;;;;;3.47;2.25;;;22.40;96.80;;;;;;5023807;28;20045;-82
2021/09/18 12:07:52;;;;;;;5.63;2.85;;;22.40;96.40;;;;;;5009656;28;20060;-82
2021/09/18 12:10:21;;;;;;;4.90;2.40;;;22.40;95.90;;;;;;5014282;28;20041;-82
2021/09/18 12:12:58;;;;;;;3.90;2.30;;;22.60;95.60;;;;;;5014877;28;20041;-83
2021/09/18 12:15:29;;;;;;;3.85;2.55;;;22.70;95.90;;;;;;5021732;28;20030;-83
2021/09/18 12:17:54;;;;;;;5.88;3.08;;;22.70;95.50;;;;;;5010115;28;20394;-83
2021/09/18 12:20:21;;;;;;;4.47;2.25;;;22.80;95.00;;;;;;5021080;28;20053;-83
2021/09/18 12:22:47;;;;;;;3.80;2.50;;;22.60;95.10;;;;;;5015821;28;20022;-81
2021/09/18 12:25:12;;;;;;;3.97;2.50;;;22.70;95.70;;;;;;5007763;28;20479;-88
2021/09/18 12:27:40;;;;;;;3.72;2.10;;;22.80;94.80;;;;;;4985444;28;20537;-84
2021/09/18 12:30:11;;;;;;;4.45;2.25;;;22.80;95.40;;;;;;5008130;28;20402;-84
2021/09/18 12:32:38;;;;;;;4.30;1.90;;;23.00;95.50;;;;;;4999567;28;20038;-84
2021/09/18 12:35:07;;;;;;;3.08;1.80;;;22.90;95.30;;;;;;4987259;28;20038;-84
2021/09/18 12:37:37;;;;;;;3.97;1.70;;;22.50;95.00;;;;;;5012874;28;20034;-83
2021/09/18 12:40:18;;;;;;;3.47;1.60;;;22.50;94.90;;;;;;5020336;28;20057;-82
2021/09/18 12:42:44;;;;;;;3.45;1.85;;;22.80;93.50;;;;;;5023396;28;20690;-81
2021/09/18 12:45:21;;;;;;;3.35;1.73;;;22.80;92.90;;;;;;5015186;28;20034;-82
2021/09/18 12:47:47;;;;;;;3.20;1.10;;;23.00;92.50;;;;;;5008281;28;20042;-79
2021/09/18 12:50:17;;;;;;;2.92;1.55;;;23.10;91.80;;;;;;5014760;28;20033;-79